Croton Falls, NY (10519)

4:35 AM EDT on October 26, 2014 (GMT -0400)
Mahopac | Change Station
CLOSE
Current Station
Personal Weather Station
Location: Mahopac, NY
Elevation: 823 ft
Nearby Weather Stations

Elev 823 ft 41.37 °N, 73.74 °W | Updated 4 minutes ago

Mostly Cloudy
Mostly Cloudy
45.4 °F
Feels Like 45 °F
N
0.0
Wind Variable Wind from SSE
Gusts 0.0 mph

Today
High -- | Low -- °F
--% Chance of Precip.
Yesterday
High -- | Low -- °F
Precip. -- in
7:18 AM 5:57 PM
Waxing Crescent, 6% visible
Pressure 29.58 in
Visibility 9.0 miles
Clouds Few 3600 ft
Mostly Cloudy 5500 ft
Mostly Cloudy 7000 ft
Windchill 45 °F
Dew Point 44 °F
Humidity 93%
Rainfall 0.02 in
Snow Depth Not available.
UV 0.0 out of 12
Pollen .80 out of 12
PM2.5 Moderate
Flu Activity Sporadic
METAR KDXR 260753Z AUTO 32008G21KT 9SM -RA FEW036 BKN055 BKN070 11/05 A2958 RMK AO2 PK WND 30028/0738 LTG DSNT N AND NE RAB40 SLP016 P0000 T01060050

More Conditions Fewer Conditions

Pressure 29.58 in
Visibility 9.0 miles
Clouds Few 3600 ft
Mostly Cloudy 5500 ft
Mostly Cloudy 7000 ft
Windchill 45 °F
Dew Point 44 °F
Humidity 93%
Rainfall 0.02 in
Snow Depth Not available.
UV 0.0 out of 12
Pollen .80 out of 12
PM2.5 Moderate
Flu Activity Sporadic
METAR KDXR 260753Z AUTO 32008G21KT 9SM -RA FEW036 BKN055 BKN070 11/05 A2958 RMK AO2 PK WND 30028/0738 LTG DSNT N AND NE RAB40 SLP016 P0000 T01060050

More Conditions Fewer Conditions

10-Day Weather Forecast

Almanac

Astronomy

Oct. 26, 2014 Rise Set
Actual Time 7:18 AM EDT 5:57 PM EDT
Civil Twilight 6:50 AM EDT 6:25 PM EDT
Nautical Twilight 6:18 AM EDT 6:58 PM EDT
Astronomical Twilight 5:46 AM EDT 7:30 PM EDT
Moon 9:55 AM EDT 8:05 PM EDT
Length of Visible Light 11h 35m
Length of Day
10h 38m
Tomorrow will be 2m 31s shorter.
Waxing Crescent, 6% of the Moon is Illuminated
Today
Waxing Crescent
Oct 30
First Quarter
Nov 6
Full
Nov 14
Last Quarter
Nov 22
New

Today's Extremes

State Highs State Lows

Community

WunderPhotos

Upload Photos

1,765,127 photos uploaded!

Nearby

Air Quality

  Air Quality AQ Index Pollutant
Yesterday Good
PM2.5
Yesterday Good
OZONE
Current Moderate
PM2.5
Sunday Good
PM2.5
Monday Good
PM2.5

Snow Depth

Station Depth Elevation
No new snow has been reported.

Earthquake Activity

City Distance Mag. Time & Date
No recent earthquake activity has been reported nearby.
Minimum magnitude displayed is 2.5.

Coastal Water Temperatures

Place Temperature
Kings Point, NY 57.9 °F
Bridgeport, CT 59.0 °F

Nearby Weather Stations